sensor_id;sensor_type;location;lat;lon;timestamp;P1;durP1;ratioP1;P2;durP2;ratioP2
73474;SDS011;61711;52.266;10.542;2023-04-25T00:00:31;9.88;;;4.13;;
73474;SDS011;61711;52.266;10.542;2023-04-25T00:02:57;9.98;;;3.78;;
73474;SDS011;61711;52.266;10.542;2023-04-25T00:05:24;9.77;;;3.92;;
73474;SDS011;61711;52.266;10.542;2023-04-25T00:07:51;7.95;;;4.15;;
73474;SDS011;61711;52.266;10.542;2023-04-25T00:10:17;10.60;;;4.75;;
73474;SDS011;61711;52.266;10.542;2023-04-25T00:12:43;12.15;;;3.85;;
73474;SDS011;61711;52.266;10.542;2023-04-25T00:15:09;8.45;;;4.05;;
73474;SDS011;61711;52.266;10.542;2023-04-25T00:17:35;8.93;;;3.85;;
73474;SDS011;61711;52.266;10.542;2023-04-25T00:20:03;11.82;;;4.22;;
73474;SDS011;61711;52.266;10.542;2023-04-25T00:22:34;7.80;;;3.65;;
73474;SDS011;61711;52.266;10.542;2023-04-25T00:25:02;8.88;;;4.05;;
73474;SDS011;61711;52.266;10.542;2023-04-25T00:27:28;11.98;;;4.50;;
73474;SDS011;61711;52.266;10.542;2023-04-25T00:29:54;9.65;;;4.55;;
73474;SDS011;61711;52.266;10.542;2023-04-25T00:32:20;11.23;;;4.57;;
73474;SDS011;61711;52.266;10.542;2023-04-25T00:34:46;8.25;;;3.92;;
73474;SDS011;61711;52.266;10.542;2023-04-25T00:37:12;12.30;;;4.30;;
73474;SDS011;61711;52.266;10.542;2023-04-25T00:39:38;13.27;;;4.55;;
73474;SDS011;61711;52.266;10.542;2023-04-25T00:42:04;10.35;;;4.05;;
73474;SDS011;61711;52.266;10.542;2023-04-25T00:44:31;10.88;;;3.92;;
73474;SDS011;61711;52.266;10.542;2023-04-25T00:46:57;14.52;;;5.00;;
73474;SDS011;61711;52.266;10.542;2023-04-25T00:49:23;8.88;;;3.90;;
73474;SDS011;61711;52.266;10.542;2023-04-25T00:51:49;13.35;;;4.38;;
73474;SDS011;61711;52.266;10.542;2023-04-25T00:54:15;10.32;;;3.70;;
73474;SDS011;61711;52.266;10.542;2023-04-25T00:56:42;11.48;;;4.40;;
73474;SDS011;61711;52.266;10.542;2023-04-25T00:59:10;10.43;;;4.45;;
73474;SDS011;61711;52.266;10.542;2023-04-25T01:01:36;8.43;;;3.80;;
73474;SDS011;61711;52.266;10.542;2023-04-25T01:04:02;9.57;;;3.92;;
73474;SDS011;61711;52.266;10.542;2023-04-25T01:06:28;9.57;;;4.10;;
73474;SDS011;61711;52.266;10.542;2023-04-25T01:08:55;11.57;;;4.18;;
73474;SDS011;61711;52.266;10.542;2023-04-25T01:11:21;9.43;;;4.35;;
73474;SDS011;61711;52.266;10.542;2023-04-25T01:13:47;8.45;;;4.28;;
73474;SDS011;61711;52.266;10.542;2023-04-25T01:16:13;8.68;;;3.83;;
73474;SDS011;61711;52.266;10.542;2023-04-25T01:18:39;9.70;;;4.22;;
73474;SDS011;61711;52.266;10.542;2023-04-25T01:21:10;9.55;;;4.32;;
73474;SDS011;61711;52.266;10.542;2023-04-25T01:23:38;11.77;;;4.15;;
73474;SDS011;61711;52.266;10.542;2023-04-25T01:26:05;11.35;;;4.20;;
73474;SDS011;61711;52.266;10.542;2023-04-25T01:28:32;9.98;;;4.00;;
73474;SDS011;61711;52.266;10.542;2023-04-25T01:30:59;10.20;;;4.53;;
73474;SDS011;61711;52.266;10.542;2023-04-25T01:33:25;10.85;;;4.28;;
73474;SDS011;61711;52.266;10.542;2023-04-25T01:35:51;8.05;;;4.18;;
73474;SDS011;61711;52.266;10.542;2023-04-25T01:38:17;11.05;;;4.30;;
73474;SDS011;61711;52.266;10.542;2023-04-25T01:40:43;11.75;;;4.50;;
73474;SDS011;61711;52.266;10.542;2023-04-25T01:43:10;10.85;;;4.07;;
73474;SDS011;61711;52.266;10.542;2023-04-25T01:45:40;12.73;;;4.47;;
73474;SDS011;61711;52.266;10.542;2023-04-25T01:48:10;13.00;;;4.78;;
73474;SDS011;61711;52.266;10.542;2023-04-25T01:50:37;11.85;;;4.47;;
73474;SDS011;61711;52.266;10.542;2023-04-25T01:53:03;12.18;;;4.25;;
73474;SDS011;61711;52.266;10.542;2023-04-25T01:55:30;10.85;;;4.57;;
73474;SDS011;61711;52.266;10.542;2023-04-25T01:57:56;11.20;;;4.88;;
73474;SDS011;61711;52.266;10.542;2023-04-25T02:00:22;12.63;;;5.25;;
73474;SDS011;61711;52.266;10.542;2023-04-25T02:02:48;11.95;;;5.18;;
73474;SDS011;61711;52.266;10.542;2023-04-25T02:05:15;15.70;;;5.57;;
73474;SDS011;61711;52.266;10.542;2023-04-25T02:07:41;11.88;;;5.28;;
73474;SDS011;61711;52.266;10.542;2023-04-25T02:10:08;10.38;;;5.00;;
73474;SDS011;61711;52.266;10.542;2023-04-25T02:12:35;11.63;;;4.75;;
73474;SDS011;61711;52.266;10.542;2023-04-25T02:15:01;13.10;;;5.28;;
73474;SDS011;61711;52.266;10.542;2023-04-25T02:17:27;10.70;;;5.32;;
73474;SDS011;61711;52.266;10.542;2023-04-25T02:19:53;12.93;;;5.63;;
73474;SDS011;61711;52.266;10.542;2023-04-25T02:22:19;12.90;;;5.45;;
73474;SDS011;61711;52.266;10.542;2023-04-25T02:24:45;11.70;;;4.80;;
73474;SDS011;61711;52.266;10.542;2023-04-25T02:27:11;13.65;;;5.18;;
73474;SDS011;61711;52.266;10.542;2023-04-25T02:29:37;12.07;;;5.40;;
73474;SDS011;61711;52.266;10.542;2023-04-25T02:32:03;15.35;;;5.65;;
73474;SDS011;61711;52.266;10.542;2023-04-25T02:34:30;15.18;;;5.35;;
73474;SDS011;61711;52.266;10.542;2023-04-25T02:36:56;11.27;;;5.35;;
73474;SDS011;61711;52.266;10.542;2023-04-25T02:39:22;11.95;;;5.15;;
73474;SDS011;61711;52.266;10.542;2023-04-25T02:41:50;12.30;;;5.93;;
73474;SDS011;61711;52.266;10.542;2023-04-25T02:44:16;14.45;;;5.95;;
73474;SDS011;61711;52.266;10.542;2023-04-25T02:46:42;15.23;;;6.13;;
73474;SDS011;61711;52.266;10.542;2023-04-25T02:49:08;11.55;;;5.22;;
73474;SDS011;61711;52.266;10.542;2023-04-25T02:51:33;14.45;;;5.80;;
73474;SDS011;61711;52.266;10.542;2023-04-25T02:53:59;11.68;;;5.05;;
73474;SDS011;61711;52.266;10.542;2023-04-25T02:56:25;12.20;;;5.88;;
73474;SDS011;61711;52.266;10.542;2023-04-25T02:58:52;14.18;;;6.03;;
73474;SDS011;61711;52.266;10.542;2023-04-25T03:01:18;12.07;;;5.40;;
73474;SDS011;61711;52.266;10.542;2023-04-25T03:03:44;17.80;;;6.75;;
73474;SDS011;61711;52.266;10.542;2023-04-25T03:06:10;16.77;;;6.25;;
73474;SDS011;61711;52.266;10.542;2023-04-25T03:08:36;15.57;;;6.25;;
73474;SDS011;61711;52.266;10.542;2023-04-25T03:11:02;15.20;;;6.45;;
73474;SDS011;61711;52.266;10.542;2023-04-25T03:13:28;13.32;;;6.13;;
73474;SDS011;61711;52.266;10.542;2023-04-25T03:15:55;12.45;;;6.35;;
73474;SDS011;61711;52.266;10.542;2023-04-25T03:18:21;22.58;;;8.95;;
73474;SDS011;61711;52.266;10.542;2023-04-25T03:20:47;15.40;;;6.50;;
73474;SDS011;61711;52.266;10.542;2023-04-25T03:23:13;12.32;;;6.60;;
73474;SDS011;61711;52.266;10.542;2023-04-25T03:25:39;13.70;;;6.47;;
73474;SDS011;61711;52.266;10.542;2023-04-25T03:28:05;13.52;;;6.22;;
73474;SDS011;61711;52.266;10.542;2023-04-25T03:30:31;18.67;;;6.68;;
73474;SDS011;61711;52.266;10.542;2023-04-25T03:32:57;15.55;;;6.43;;
73474;SDS011;61711;52.266;10.542;2023-04-25T03:35:24;13.40;;;6.22;;
73474;SDS011;61711;52.266;10.542;2023-04-25T03:37:50;14.27;;;6.35;;
73474;SDS011;61711;52.266;10.542;2023-04-25T03:40:16;13.93;;;6.90;;
73474;SDS011;61711;52.266;10.542;2023-04-25T03:42:42;12.57;;;6.30;;
73474;SDS011;61711;52.266;10.542;2023-04-25T03:45:08;14.38;;;6.00;;
73474;SDS011;61711;52.266;10.542;2023-04-25T03:47:34;13.77;;;6.28;;
73474;SDS011;61711;52.266;10.542;2023-04-25T03:50:00;13.48;;;5.43;;
73474;SDS011;61711;52.266;10.542;2023-04-25T03:52:27;16.23;;;6.43;;
73474;SDS011;61711;52.266;10.542;2023-04-25T03:54:53;15.32;;;6.68;;
73474;SDS011;61711;52.266;10.542;2023-04-25T03:57:19;14.50;;;6.13;;
73474;SDS011;61711;52.266;10.542;2023-04-25T03:59:45;12.65;;;5.10;;
73474;SDS011;61711;52.266;10.542;2023-04-25T04:02:11;16.10;;;4.53;;
73474;SDS011;61711;52.266;10.542;2023-04-25T04:04:37;11.43;;;4.40;;
73474;SDS011;61711;52.266;10.542;2023-04-25T04:07:03;10.68;;;4.18;;
73474;SDS011;61711;52.266;10.542;2023-04-25T04:09:29;10.55;;;3.55;;
73474;SDS011;61711;52.266;10.542;2023-04-25T04:11:55;10.27;;;3.72;;
73474;SDS011;61711;52.266;10.542;2023-04-25T04:14:21;13.43;;;3.83;;
73474;SDS011;61711;52.266;10.542;2023-04-25T04:16:47;15.07;;;4.07;;
73474;SDS011;61711;52.266;10.542;2023-04-25T04:19:14;16.13;;;3.85;;
73474;SDS011;61711;52.266;10.542;2023-04-25T04:21:40;13.40;;;4.18;;
73474;SDS011;61711;52.266;10.542;2023-04-25T04:24:06;11.57;;;3.85;;
73474;SDS011;61711;52.266;10.542;2023-04-25T04:26:32;12.48;;;4.07;;
73474;SDS011;61711;52.266;10.542;2023-04-25T04:28:59;14.00;;;3.90;;
73474;SDS011;61711;52.266;10.542;2023-04-25T04:31:25;11.90;;;4.05;;
73474;SDS011;61711;52.266;10.542;2023-04-25T04:33:51;14.57;;;3.92;;
73474;SDS011;61711;52.266;10.542;2023-04-25T04:36:17;15.82;;;3.90;;
73474;SDS011;61711;52.266;10.542;2023-04-25T04:38:48;10.52;;;3.85;;
73474;SDS011;61711;52.266;10.542;2023-04-25T04:41:14;12.35;;;3.45;;
73474;SDS011;61711;52.266;10.542;2023-04-25T04:43:40;12.70;;;4.07;;
73474;SDS011;61711;52.266;10.542;2023-04-25T04:46:06;15.48;;;4.70;;
73474;SDS011;61711;52.266;10.542;2023-04-25T04:48:35;16.13;;;3.63;;
73474;SDS011;61711;52.266;10.542;2023-04-25T04:51:01;9.13;;;3.50;;
73474;SDS011;61711;52.266;10.542;2023-04-25T04:53:27;17.77;;;4.15;;
73474;SDS011;61711;52.266;10.542;2023-04-25T04:55:53;14.20;;;3.65;;
73474;SDS011;61711;52.266;10.542;2023-04-25T04:58:19;15.88;;;4.63;;
73474;SDS011;61711;52.266;10.542;2023-04-25T05:00:45;16.25;;;3.67;;
73474;SDS011;61711;52.266;10.542;2023-04-25T05:03:11;13.88;;;4.10;;
73474;SDS011;61711;52.266;10.542;2023-04-25T05:05:38;17.38;;;4.10;;
73474;SDS011;61711;52.266;10.542;2023-04-25T05:08:05;13.90;;;4.60;;
73474;SDS011;61711;52.266;10.542;2023-04-25T05:10:31;19.63;;;5.78;;
73474;SDS011;61711;52.266;10.542;2023-04-25T05:12:57;14.50;;;4.00;;
73474;SDS011;61711;52.266;10.542;2023-04-25T05:15:23;17.00;;;4.63;;
73474;SDS011;61711;52.266;10.542;2023-04-25T05:17:49;15.05;;;4.10;;
73474;SDS011;61711;52.266;10.542;2023-04-25T05:20:15;13.68;;;3.95;;
73474;SDS011;61711;52.266;10.542;2023-04-25T05:22:43;18.27;;;4.45;;
73474;SDS011;61711;52.266;10.542;2023-04-25T05:25:10;12.43;;;3.78;;
73474;SDS011;61711;52.266;10.542;2023-04-25T05:27:36;12.82;;;4.40;;
73474;SDS011;61711;52.266;10.542;2023-04-25T05:30:02;16.65;;;3.80;;
73474;SDS011;61711;52.266;10.542;2023-04-25T05:32:29;16.73;;;4.43;;
73474;SDS011;61711;52.266;10.542;2023-04-25T05:34:55;16.05;;;4.57;;
73474;SDS011;61711;52.266;10.542;2023-04-25T05:37:21;13.52;;;3.92;;
73474;SDS011;61711;52.266;10.542;2023-04-25T05:39:47;15.98;;;3.95;;
73474;SDS011;61711;52.266;10.542;2023-04-25T05:42:13;19.65;;;4.20;;
73474;SDS011;61711;52.266;10.542;2023-04-25T05:44:39;15.38;;;3.63;;
73474;SDS011;61711;52.266;10.542;2023-04-25T05:47:05;12.98;;;4.05;;
73474;SDS011;61711;52.266;10.542;2023-04-25T05:49:31;19.63;;;4.05;;
73474;SDS011;61711;52.266;10.542;2023-04-25T05:51:57;15.70;;;3.67;;
73474;SDS011;61711;52.266;10.542;2023-04-25T05:54:23;16.55;;;4.03;;
73474;SDS011;61711;52.266;10.542;2023-04-25T05:56:49;16.25;;;3.67;;
73474;SDS011;61711;52.266;10.542;2023-04-25T05:59:15;18.30;;;3.63;;
73474;SDS011;61711;52.266;10.542;2023-04-25T06:01:41;19.02;;;4.53;;
73474;SDS011;61711;52.266;10.542;2023-04-25T06:04:07;12.30;;;3.67;;
73474;SDS011;61711;52.266;10.542;2023-04-25T06:06:33;13.82;;;3.30;;
73474;SDS011;61711;52.266;10.542;2023-04-25T06:08:59;15.00;;;3.00;;
73474;SDS011;61711;52.266;10.542;2023-04-25T06:11:25;14.80;;;3.53;;
73474;SDS011;61711;52.266;10.542;2023-04-25T06:13:51;15.48;;;3.55;;
73474;SDS011;61711;52.266;10.542;2023-04-25T06:16:17;13.82;;;3.30;;
73474;SDS011;61711;52.266;10.542;2023-04-25T06:18:43;15.68;;;4.18;;
73474;SDS011;61711;52.266;10.542;2023-04-25T06:21:09;18.27;;;3.63;;
73474;SDS011;61711;52.266;10.542;2023-04-25T06:23:35;14.57;;;3.15;;
73474;SDS011;61711;52.266;10.542;2023-04-25T06:26:01;16.60;;;3.90;;
73474;SDS011;61711;52.266;10.542;2023-04-25T06:28:28;14.10;;;3.45;;
73474;SDS011;61711;52.266;10.542;2023-04-25T06:30:54;13.75;;;3.45;;
73474;SDS011;61711;52.266;10.542;2023-04-25T06:33:20;13.55;;;3.72;;
73474;SDS011;61711;52.266;10.542;2023-04-25T06:35:47;18.73;;;3.83;;
73474;SDS011;61711;52.266;10.542;2023-04-25T06:38:13;13.90;;;3.60;;
73474;SDS011;61711;52.266;10.542;2023-04-25T06:40:39;15.63;;;3.40;;
73474;SDS011;61711;52.266;10.542;2023-04-25T06:43:05;14.90;;;3.33;;
73474;SDS011;61711;52.266;10.542;2023-04-25T06:45:31;11.90;;;2.83;;
73474;SDS011;61711;52.266;10.542;2023-04-25T06:47:57;16.52;;;3.00;;
73474;SDS011;61711;52.266;10.542;2023-04-25T06:50:23;11.95;;;2.83;;
73474;SDS011;61711;52.266;10.542;2023-04-25T06:52:49;16.85;;;3.78;;
73474;SDS011;61711;52.266;10.542;2023-04-25T06:55:15;13.43;;;3.00;;
73474;SDS011;61711;52.266;10.542;2023-04-25T06:57:41;18.27;;;3.08;;
73474;SDS011;61711;52.266;10.542;2023-04-25T07:00:07;11.73;;;3.30;;
73474;SDS011;61711;52.266;10.542;2023-04-25T07:02:34;11.75;;;3.08;;
73474;SDS011;61711;52.266;10.542;2023-04-25T07:05:01;15.32;;;3.45;;
73474;SDS011;61711;52.266;10.542;2023-04-25T07:07:29;14.13;;;3.00;;
73474;SDS011;61711;52.266;10.542;2023-04-25T07:09:55;10.93;;;2.53;;
73474;SDS011;61711;52.266;10.542;2023-04-25T07:12:21;8.82;;;2.50;;
73474;SDS011;61711;52.266;10.542;2023-04-25T07:14:47;13.07;;;2.42;;
73474;SDS011;61711;52.266;10.542;2023-04-25T07:17:13;13.85;;;2.15;;
73474;SDS011;61711;52.266;10.542;2023-04-25T07:19:40;6.65;;;2.15;;
73474;SDS011;61711;52.266;10.542;2023-04-25T07:22:06;13.00;;;2.55;;
73474;SDS011;61711;52.266;10.542;2023-04-25T07:24:32;9.35;;;2.30;;
73474;SDS011;61711;52.266;10.542;2023-04-25T07:26:59;11.32;;;2.28;;
73474;SDS011;61711;52.266;10.542;2023-04-25T07:29:26;9.75;;;2.13;;
73474;SDS011;61711;52.266;10.542;2023-04-25T07:31:52;5.13;;;1.80;;
73474;SDS011;61711;52.266;10.542;2023-04-25T07:34:18;8.63;;;2.33;;
73474;SDS011;61711;52.266;10.542;2023-04-25T07:36:44;11.63;;;2.55;;
73474;SDS011;61711;52.266;10.542;2023-04-25T07:39:10;7.95;;;1.75;;
73474;SDS011;61711;52.266;10.542;2023-04-25T07:41:36;9.63;;;2.20;;
73474;SDS011;61711;52.266;10.542;2023-04-25T07:44:02;5.78;;;1.73;;
73474;SDS011;61711;52.266;10.542;2023-04-25T07:46:28;6.20;;;1.70;;
73474;SDS011;61711;52.266;10.542;2023-04-25T07:48:54;8.85;;;2.03;;
73474;SDS011;61711;52.266;10.542;2023-04-25T07:51:20;6.10;;;2.00;;
73474;SDS011;61711;52.266;10.542;2023-04-25T07:53:47;8.93;;;2.17;;
73474;SDS011;61711;52.266;10.542;2023-04-25T07:56:13;7.03;;;2.08;;
73474;SDS011;61711;52.266;10.542;2023-04-25T07:58:39;7.05;;;1.90;;
73474;SDS011;61711;52.266;10.542;2023-04-25T08:01:05;9.45;;;2.20;;
73474;SDS011;61711;52.266;10.542;2023-04-25T08:03:31;4.82;;;1.73;;
73474;SDS011;61711;52.266;10.542;2023-04-25T08:05:57;7.88;;;2.13;;
73474;SDS011;61711;52.266;10.542;2023-04-25T08:08:23;5.80;;;2.00;;
73474;SDS011;61711;52.266;10.542;2023-04-25T08:10:49;7.43;;;1.88;;
73474;SDS011;61711;52.266;10.542;2023-04-25T08:13:15;5.00;;;1.60;;
73474;SDS011;61711;52.266;10.542;2023-04-25T08:15:41;8.48;;;2.20;;
73474;SDS011;61711;52.266;10.542;2023-04-25T08:18:07;5.65;;;1.83;;
73474;SDS011;61711;52.266;10.542;2023-04-25T08:20:33;6.80;;;2.15;;
73474;SDS011;61711;52.266;10.542;2023-04-25T08:22:59;8.90;;;2.25;;
73474;SDS011;61711;52.266;10.542;2023-04-25T08:25:25;9.43;;;2.13;;
73474;SDS011;61711;52.266;10.542;2023-04-25T08:27:51;9.50;;;2.55;;
73474;SDS011;61711;52.266;10.542;2023-04-25T08:30:17;13.35;;;2.85;;
73474;SDS011;61711;52.266;10.542;2023-04-25T08:32:44;7.57;;;2.28;;
73474;SDS011;61711;52.266;10.542;2023-04-25T08:35:10;10.35;;;2.72;;
73474;SDS011;61711;52.266;10.542;2023-04-25T08:37:36;9.85;;;2.53;;
73474;SDS011;61711;52.266;10.542;2023-04-25T08:40:03;12.60;;;3.63;;
73474;SDS011;61711;52.266;10.542;2023-04-25T08:42:33;12.20;;;3.00;;
73474;SDS011;61711;52.266;10.542;2023-04-25T08:45:02;15.65;;;3.63;;
73474;SDS011;61711;52.266;10.542;2023-04-25T08:47:29;12.63;;;3.85;;
73474;SDS011;61711;52.266;10.542;2023-04-25T08:49:55;13.27;;;3.70;;
73474;SDS011;61711;52.266;10.542;2023-04-25T08:52:22;10.05;;;3.90;;
73474;SDS011;61711;52.266;10.542;2023-04-25T08:54:49;8.95;;;3.40;;
73474;SDS011;61711;52.266;10.542;2023-04-25T08:57:15;10.13;;;3.40;;
73474;SDS011;61711;52.266;10.542;2023-04-25T08:59:42;11.18;;;3.47;;
73474;SDS011;61711;52.266;10.542;2023-04-25T09:02:11;8.93;;;2.60;;
73474;SDS011;61711;52.266;10.542;2023-04-25T09:04:42;10.32;;;2.65;;
73474;SDS011;61711;52.266;10.542;2023-04-25T09:07:08;6.95;;;2.25;;
73474;SDS011;61711;52.266;10.542;2023-04-25T09:09:34;6.22;;;2.10;;
73474;SDS011;61711;52.266;10.542;2023-04-25T09:12:01;8.73;;;2.97;;
73474;SDS011;61711;52.266;10.542;2023-04-25T09:14:27;6.88;;;2.08;;
73474;SDS011;61711;52.266;10.542;2023-04-25T09:19:22;11.27;;;2.40;;
73474;SDS011;61711;52.266;10.542;2023-04-25T09:21:49;8.93;;;2.50;;
73474;SDS011;61711;52.266;10.542;2023-04-25T09:24:15;6.43;;;2.67;;
73474;SDS011;61711;52.266;10.542;2023-04-25T09:26:41;5.80;;;2.00;;
73474;SDS011;61711;52.266;10.542;2023-04-25T09:29:08;8.70;;;2.50;;
73474;SDS011;61711;52.266;10.542;2023-04-25T09:31:35;7.35;;;2.13;;
73474;SDS011;61711;52.266;10.542;2023-04-25T09:34:02;10.30;;;2.22;;
73474;SDS011;61711;52.266;10.542;2023-04-25T09:36:29;8.65;;;2.00;;
73474;SDS011;61711;52.266;10.542;2023-04-25T09:38:55;6.90;;;2.28;;
73474;SDS011;61711;52.266;10.542;2023-04-25T09:41:24;7.22;;;2.22;;
73474;SDS011;61711;52.266;10.542;2023-04-25T09:43:50;4.57;;;1.77;;
73474;SDS011;61711;52.266;10.542;2023-04-25T09:46:17;10.15;;;2.45;;
73474;SDS011;61711;52.266;10.542;2023-04-25T09:48:49;6.85;;;1.90;;
73474;SDS011;61711;52.266;10.542;2023-04-25T09:51:16;6.20;;;2.00;;
73474;SDS011;61711;52.266;10.542;2023-04-25T09:53:44;6.40;;;2.30;;
73474;SDS011;61711;52.266;10.542;2023-04-25T09:56:16;5.70;;;1.92;;
73474;SDS011;61711;52.266;10.542;2023-04-25T09:58:42;8.23;;;2.30;;
73474;SDS011;61711;52.266;10.542;2023-04-25T10:01:09;4.70;;;2.38;;
73474;SDS011;61711;52.266;10.542;2023-04-25T10:03:38;6.32;;;2.45;;
73474;SDS011;61711;52.266;10.542;2023-04-25T10:06:07;6.68;;;2.00;;
73474;SDS011;61711;52.266;10.542;2023-04-25T10:08:34;5.35;;;2.40;;
73474;SDS011;61711;52.266;10.542;2023-04-25T10:11:01;8.15;;;2.50;;
73474;SDS011;61711;52.266;10.542;2023-04-25T10:13:31;6.40;;;2.13;;
73474;SDS011;61711;52.266;10.542;2023-04-25T10:15:58;10.68;;;2.17;;
73474;SDS011;61711;52.266;10.542;2023-04-25T10:18:25;5.78;;;2.05;;
73474;SDS011;61711;52.266;10.542;2023-04-25T10:20:53;6.03;;;2.22;;
73474;SDS011;61711;52.266;10.542;2023-04-25T10:23:19;17.48;;;3.60;;
73474;SDS011;61711;52.266;10.542;2023-04-25T10:25:45;5.13;;;2.25;;
73474;SDS011;61711;52.266;10.542;2023-04-25T10:28:11;5.75;;;2.40;;
73474;SDS011;61711;52.266;10.542;2023-04-25T10:30:37;6.65;;;2.53;;
73474;SDS011;61711;52.266;10.542;2023-04-25T10:33:29;7.20;;;2.35;;
73474;SDS011;61711;52.266;10.542;2023-04-25T10:35:57;9.10;;;2.60;;
73474;SDS011;61711;52.266;10.542;2023-04-25T10:38:23;9.32;;;2.22;;
73474;SDS011;61711;52.266;10.542;2023-04-25T10:41:04;6.45;;;1.98;;
73474;SDS011;61711;52.266;10.542;2023-04-25T10:45:56;6.75;;;2.03;;
73474;SDS011;61711;52.266;10.542;2023-04-25T10:48:26;6.40;;;2.00;;
73474;SDS011;61711;52.266;10.542;2023-04-25T10:51:08;5.50;;;2.20;;
73474;SDS011;61711;52.266;10.542;2023-04-25T10:53:34;5.57;;;2.00;;
73474;SDS011;61711;52.266;10.542;2023-04-25T10:56:00;3.60;;;1.75;;
73474;SDS011;61711;52.266;10.542;2023-04-25T10:58:26;5.60;;;1.90;;
73474;SDS011;61711;52.266;10.542;2023-04-25T11:00:52;5.97;;;1.67;;
73474;SDS011;61711;52.266;10.542;2023-04-25T11:03:20;5.68;;;1.77;;
73474;SDS011;61711;52.266;10.542;2023-04-25T11:05:48;2.83;;;1.40;;
73474;SDS011;61711;52.266;10.542;2023-04-25T11:08:15;4.63;;;1.83;;
73474;SDS011;61711;52.266;10.542;2023-04-25T11:10:46;5.57;;;1.75;;
73474;SDS011;61711;52.266;10.542;2023-04-25T11:13:12;5.75;;;2.13;;
73474;SDS011;61711;52.266;10.542;2023-04-25T11:15:39;2.53;;;1.67;;
73474;SDS011;61711;52.266;10.542;2023-04-25T11:18:05;4.75;;;1.90;;
73474;SDS011;61711;52.266;10.542;2023-04-25T11:20:31;6.20;;;1.90;;
73474;SDS011;61711;52.266;10.542;2023-04-25T11:22:57;5.95;;;1.65;;
73474;SDS011;61711;52.266;10.542;2023-04-25T11:25:25;5.00;;;1.80;;
73474;SDS011;61711;52.266;10.542;2023-04-25T11:27:52;5.55;;;1.63;;
73474;SDS011;61711;52.266;10.542;2023-04-25T11:30:19;3.40;;;1.70;;
73474;SDS011;61711;52.266;10.542;2023-04-25T11:32:45;5.00;;;1.73;;
73474;SDS011;61711;52.266;10.542;2023-04-25T11:35:11;5.10;;;1.70;;
73474;SDS011;61711;52.266;10.542;2023-04-25T11:37:41;4.78;;;1.60;;
73474;SDS011;61711;52.266;10.542;2023-04-25T11:40:08;5.28;;;1.40;;
73474;SDS011;61711;52.266;10.542;2023-04-25T11:42:37;7.95;;;2.00;;
73474;SDS011;61711;52.266;10.542;2023-04-25T11:45:04;3.70;;;1.65;;
73474;SDS011;61711;52.266;10.542;2023-04-25T11:47:31;5.60;;;2.00;;
73474;SDS011;61711;52.266;10.542;2023-04-25T11:49:58;6.10;;;1.90;;
73474;SDS011;61711;52.266;10.542;2023-04-25T11:52:24;5.30;;;1.67;;
73474;SDS011;61711;52.266;10.542;2023-04-25T11:54:50;5.13;;;2.05;;
73474;SDS011;61711;52.266;10.542;2023-04-25T11:57:18;5.95;;;1.95;;
73474;SDS011;61711;52.266;10.542;2023-04-25T11:59:45;7.75;;;1.85;;
73474;SDS011;61711;52.266;10.542;2023-04-25T12:02:23;7.95;;;1.98;;
73474;SDS011;61711;52.266;10.542;2023-04-25T12:04:49;6.30;;;1.90;;
73474;SDS011;61711;52.266;10.542;2023-04-25T12:07:15;7.05;;;2.20;;
73474;SDS011;61711;52.266;10.542;2023-04-25T12:09:41;8.23;;;2.03;;
73474;SDS011;61711;52.266;10.542;2023-04-25T12:12:09;4.85;;;2.10;;
73474;SDS011;61711;52.266;10.542;2023-04-25T12:14:35;4.95;;;2.17;;
73474;SDS011;61711;52.266;10.542;2023-04-25T12:17:04;6.20;;;2.55;;
73474;SDS011;61711;52.266;10.542;2023-04-25T12:19:36;3.72;;;1.33;;
73474;SDS011;61711;52.266;10.542;2023-04-25T12:22:10;4.63;;;1.75;;
73474;SDS011;61711;52.266;10.542;2023-04-25T12:24:44;4.07;;;1.30;;
73474;SDS011;61711;52.266;10.542;2023-04-25T12:27:10;3.25;;;1.60;;
73474;SDS011;61711;52.266;10.542;2023-04-25T12:29:49;3.33;;;1.58;;
73474;SDS011;61711;52.266;10.542;2023-04-25T12:32:16;4.35;;;1.40;;
73474;SDS011;61711;52.266;10.542;2023-04-25T12:34:42;3.67;;;1.52;;
73474;SDS011;61711;52.266;10.542;2023-04-25T12:37:08;7.75;;;1.50;;
73474;SDS011;61711;52.266;10.542;2023-04-25T12:39:35;4.43;;;1.58;;
73474;SDS011;61711;52.266;10.542;2023-04-25T12:42:01;2.70;;;1.13;;
73474;SDS011;61711;52.266;10.542;2023-04-25T12:44:28;4.15;;;1.33;;
73474;SDS011;61711;52.266;10.542;2023-04-25T12:46:54;3.30;;;1.38;;
73474;SDS011;61711;52.266;10.542;2023-04-25T12:49:20;5.70;;;1.23;;
73474;SDS011;61711;52.266;10.542;2023-04-25T12:51:46;5.22;;;1.45;;
73474;SDS011;61711;52.266;10.542;2023-04-25T12:54:12;3.40;;;1.35;;
73474;SDS011;61711;52.266;10.542;2023-04-25T12:56:39;3.95;;;1.63;;
73474;SDS011;61711;52.266;10.542;2023-04-25T12:59:06;2.22;;;1.30;;
73474;SDS011;61711;52.266;10.542;2023-04-25T13:01:32;3.58;;;1.40;;
73474;SDS011;61711;52.266;10.542;2023-04-25T13:03:58;2.78;;;1.38;;
73474;SDS011;61711;52.266;10.542;2023-04-25T13:06:25;2.58;;;1.30;;
73474;SDS011;61711;52.266;10.542;2023-04-25T13:08:51;4.40;;;1.50;;
73474;SDS011;61711;52.266;10.542;2023-04-25T13:11:17;4.22;;;1.90;;
73474;SDS011;61711;52.266;10.542;2023-04-25T13:13:44;3.97;;;1.85;;
73474;SDS011;61711;52.266;10.542;2023-04-25T13:16:10;4.22;;;2.20;;
73474;SDS011;61711;52.266;10.542;2023-04-25T13:18:38;3.65;;;1.40;;
73474;SDS011;61711;52.266;10.542;2023-04-25T13:21:04;4.60;;;1.48;;
73474;SDS011;61711;52.266;10.542;2023-04-25T13:23:30;2.95;;;1.52;;
73474;SDS011;61711;52.266;10.542;2023-04-25T13:25:57;3.53;;;2.08;;
73474;SDS011;61711;52.266;10.542;2023-04-25T13:28:23;5.03;;;1.60;;
73474;SDS011;61711;52.266;10.542;2023-04-25T13:30:50;5.00;;;1.80;;
73474;SDS011;61711;52.266;10.542;2023-04-25T13:33:16;4.20;;;1.63;;
73474;SDS011;61711;52.266;10.542;2023-04-25T13:35:43;4.20;;;1.67;;
73474;SDS011;61711;52.266;10.542;2023-04-25T13:38:11;4.15;;;2.10;;
73474;SDS011;61711;52.266;10.542;2023-04-25T13:40:38;4.95;;;1.75;;
73474;SDS011;61711;52.266;10.542;2023-04-25T13:43:04;5.28;;;1.80;;
73474;SDS011;61711;52.266;10.542;2023-04-25T13:45:31;3.67;;;1.80;;
73474;SDS011;61711;52.266;10.542;2023-04-25T13:47:57;4.95;;;1.88;;
73474;SDS011;61711;52.266;10.542;2023-04-25T13:50:23;6.00;;;2.30;;
73474;SDS011;61711;52.266;10.542;2023-04-25T13:52:50;4.40;;;2.45;;
73474;SDS011;61711;52.266;10.542;2023-04-25T13:55:16;4.75;;;1.40;;
73474;SDS011;61711;52.266;10.542;2023-04-25T13:57:42;3.33;;;1.23;;
73474;SDS011;61711;52.266;10.542;2023-04-25T14:00:08;4.18;;;1.60;;
73474;SDS011;61711;52.266;10.542;2023-04-25T14:02:35;2.13;;;1.00;;
73474;SDS011;61711;52.266;10.542;2023-04-25T14:05:01;2.20;;;1.08;;
73474;SDS011;61711;52.266;10.542;2023-04-25T14:07:28;4.30;;;1.40;;
73474;SDS011;61711;52.266;10.542;2023-04-25T14:09:54;2.50;;;1.00;;
73474;SDS011;61711;52.266;10.542;2023-04-25T14:12:22;8.35;;;1.15;;
73474;SDS011;61711;52.266;10.542;2023-04-25T14:14:48;3.33;;;0.90;;
73474;SDS011;61711;52.266;10.542;2023-04-25T14:17:14;2.45;;;0.80;;
73474;SDS011;61711;52.266;10.542;2023-04-25T14:19:40;4.05;;;0.85;;
73474;SDS011;61711;52.266;10.542;2023-04-25T14:22:10;2.42;;;1.02;;
73474;SDS011;61711;52.266;10.542;2023-04-25T14:24:36;2.33;;;1.08;;
73474;SDS011;61711;52.266;10.542;2023-04-25T14:27:02;2.38;;;1.02;;
73474;SDS011;61711;52.266;10.542;2023-04-25T14:29:29;4.25;;;1.40;;